createdAt,value
2017-05-01T00:00:35.210Z,0
2017-05-01T00:01:45.253Z,0
2017-05-01T00:02:54.978Z,0
2017-05-01T00:04:05.047Z,0
2017-05-01T00:05:14.780Z,0
2017-05-01T00:06:23.878Z,0
2017-05-01T00:07:33.916Z,0
2017-05-01T00:08:43.326Z,0
2017-05-01T00:09:53.051Z,0
2017-05-01T00:11:03.107Z,0
2017-05-01T00:12:12.823Z,0
2017-05-01T00:13:22.863Z,0
2017-05-01T00:14:33.219Z,0
2017-05-01T00:15:43.582Z,0
2017-05-01T00:16:53.626Z,0
2017-05-01T00:18:03.347Z,0
2017-05-01T00:19:13.386Z,0
2017-05-01T00:20:23.420Z,0
2017-05-01T00:21:33.465Z,0
2017-05-01T00:22:43.180Z,0
2017-05-01T00:23:53.212Z,0
2017-05-01T00:25:02.621Z,0
2017-05-01T00:26:12.345Z,0
2017-05-01T00:27:22.078Z,0
2017-05-01T00:28:32.114Z,0
2017-05-01T00:29:41.531Z,0
2017-05-01T00:30:51.246Z,0
2017-05-01T00:32:00.663Z,0
2017-05-01T00:33:10.712Z,0
2017-05-01T00:34:20.113Z,0
2017-05-01T00:35:29.202Z,0
2017-05-01T00:36:38.924Z,0
2017-05-01T00:37:48.966Z,0
2017-05-01T00:38:58.374Z,0
2017-05-01T00:40:08.103Z,0
2017-05-01T00:41:18.133Z,0
2017-05-01T00:42:27.550Z,0
2017-05-01T00:43:37.590Z,0
2017-05-01T00:44:47.342Z,0
2017-05-01T00:45:57.072Z,0
2017-05-01T00:47:07.104Z,0
2017-05-01T00:48:16.831Z,0
2017-05-01T00:49:26.565Z,0
2017-05-01T00:50:36.292Z,0
2017-05-01T00:51:45.386Z,0
2017-05-01T00:52:55.435Z,0
2017-05-01T00:54:05.481Z,0
2017-05-01T00:55:14.891Z,0
2017-05-01T00:56:24.927Z,0
2017-05-01T00:57:33.709Z,0
2017-05-01T00:58:43.439Z,0
2017-05-01T00:59:53.805Z,0
2017-05-01T01:01:03.535Z,0
2017-05-01T01:02:13.250Z,0
2017-05-01T01:03:23.602Z,0
2017-05-01T01:04:33.329Z,0
2017-05-01T01:05:43.062Z,0
2017-05-01T01:06:52.472Z,0
2017-05-01T01:08:02.825Z,0
2017-05-01T01:09:12.549Z,0
2017-05-01T01:10:21.953Z,0
2017-05-01T01:11:31.668Z,0
2017-05-01T01:12:41.078Z,0
2017-05-01T01:13:50.818Z,0
2017-05-01T01:15:01.178Z,0
2017-05-01T01:16:10.907Z,0
2017-05-01T01:17:20.315Z,0
2017-05-01T01:18:30.411Z,0
2017-05-01T01:19:39.511Z,0
2017-05-01T01:20:49.870Z,0
2017-05-01T01:21:59.918Z,0
2017-05-01T01:23:09.642Z,0
2017-05-01T01:24:18.733Z,0
2017-05-01T01:25:28.468Z,0
2017-05-01T01:26:38.515Z,0
2017-05-01T01:27:47.928Z,0
2017-05-01T01:28:57.651Z,0
2017-05-01T01:30:07.061Z,0
2017-05-01T01:31:16.465Z,0
2017-05-01T01:32:26.507Z,0
2017-05-01T01:33:36.866Z,0
2017-05-01T01:34:46.588Z,0
2017-05-01T01:35:55.995Z,0
2017-05-01T01:37:05.715Z,0
2017-05-01T01:38:15.124Z,0
2017-05-01T01:39:25.168Z,0
2017-05-01T01:40:35.209Z,0
2017-05-01T01:41:45.246Z,0
2017-05-01T01:42:55.300Z,0
2017-05-01T01:44:05.025Z,0
2017-05-01T01:45:14.746Z,0
2017-05-01T01:46:24.459Z,0
2017-05-01T01:47:33.867Z,0
2017-05-01T01:48:43.923Z,0
2017-05-01T01:49:53.650Z,0
2017-05-01T01:51:03.073Z,0
2017-05-01T01:52:12.804Z,0
2017-05-01T01:53:22.850Z,0
2017-05-01T01:54:33.202Z,0
2017-05-01T01:55:43.251Z,0
2017-05-01T01:56:53.303Z,0
2017-05-01T01:58:02.399Z,0
2017-05-01T01:59:12.443Z,0
2017-05-01T02:00:22.168Z,0
2017-05-01T02:01:31.900Z,0
2017-05-01T02:02:41.930Z,0
2017-05-01T02:03:52.288Z,0
2017-05-01T02:05:02.322Z,0
2017-05-01T02:06:12.050Z,0
2017-05-01T02:07:22.088Z,0
2017-05-01T02:08:31.493Z,0
2017-05-01T02:09:41.541Z,0
2017-05-01T02:10:51.593Z,0
2017-05-01T02:12:01.643Z,0
2017-05-01T02:13:11.371Z,0
2017-05-01T02:14:21.451Z,0
2017-05-01T02:15:31.801Z,0
2017-05-01T02:16:41.527Z,0
2017-05-01T02:17:50.941Z,0
2017-05-01T02:19:00.675Z,0
2017-05-01T02:20:10.728Z,0
2017-05-01T02:21:19.821Z,0
2017-05-01T02:22:28.911Z,0
2017-05-01T02:23:38.954Z,0
2017-05-01T02:24:49.305Z,0
2017-05-01T02:25:58.715Z,0
2017-05-01T02:27:08.438Z,0
2017-05-01T02:28:18.175Z,0
2017-05-01T02:29:28.213Z,0
2017-05-01T02:30:37.932Z,0
2017-05-01T02:31:48.283Z,0
2017-05-01T02:32:58.630Z,0
2017-05-01T02:34:08.363Z,0
2017-05-01T02:35:18.084Z,0
2017-05-01T02:36:27.810Z,0
2017-05-01T02:37:37.531Z,0
2017-05-01T02:38:46.616Z,0
2017-05-01T02:39:56.650Z,0
2017-05-01T02:41:07.004Z,0
2017-05-01T02:42:16.736Z,0
2017-05-01T02:43:26.464Z,0
2017-05-01T02:44:36.191Z,0
2017-05-01T02:45:46.229Z,0
2017-05-01T02:46:56.260Z,0
2017-05-01T02:48:06.310Z,0
2017-05-01T02:49:16.378Z,0
2017-05-01T02:50:26.116Z,0
2017-05-01T02:51:36.155Z,0
2017-05-01T02:52:46.518Z,0
2017-05-01T02:53:56.251Z,0
2017-05-01T02:55:06.626Z,0
2017-05-01T02:56:16.667Z,0
2017-05-01T02:57:26.432Z,0
2017-05-01T02:58:36.191Z,0
2017-05-01T02:59:46.549Z,0
2017-05-01T03:00:56.615Z,0
2017-05-01T03:02:06.430Z,0
2017-05-01T03:03:16.475Z,0
2017-05-01T03:04:26.212Z,0
2017-05-01T03:05:35.306Z,0
2017-05-01T03:06:45.019Z,0
2017-05-01T03:07:54.754Z,0
2017-05-01T03:09:04.808Z,0
2017-05-01T03:10:14.219Z,0
2017-05-01T03:11:23.631Z,0
2017-05-01T03:12:33.358Z,0
2017-05-01T03:13:43.084Z,0
2017-05-01T03:14:53.450Z,0
2017-05-01T03:16:03.805Z,0
2017-05-01T03:17:13.538Z,0
2017-05-01T03:18:23.266Z,0
2017-05-01T03:19:33.000Z,0
2017-05-01T03:20:42.726Z,0
2017-05-01T03:21:52.451Z,0
2017-05-01T03:23:02.497Z,0
2017-05-01T03:24:11.929Z,0
2017-05-01T03:25:21.970Z,0
2017-05-01T03:26:32.009Z,0
2017-05-01T03:27:41.732Z,0
2017-05-01T03:28:51.481Z,0
2017-05-01T03:30:00.579Z,0
2017-05-01T03:31:10.607Z,4
2017-05-01T03:32:20.025Z,4
2017-05-01T03:33:30.378Z,0
2017-05-01T03:34:40.420Z,4
2017-05-01T03:35:50.456Z,4
2017-05-01T03:37:00.172Z,8
2017-05-01T03:38:09.586Z,4
2017-05-01T03:39:19.621Z,8
2017-05-01T03:40:29.340Z,8
2017-05-01T03:41:39.407Z,12
2017-05-01T03:42:48.823Z,12
2017-05-01T03:43:58.893Z,12
2017-05-01T03:45:08.944Z,16
2017-05-01T03:46:18.983Z,20
2017-05-01T03:47:28.408Z,24
2017-05-01T03:48:38.454Z,24
2017-05-01T03:49:48.168Z,28
2017-05-01T03:50:57.924Z,36
2017-05-01T03:52:07.965Z,40
2017-05-01T03:53:18.005Z,44
2017-05-01T03:54:27.748Z,56
2017-05-01T03:55:37.787Z,64
2017-05-01T03:56:47.819Z,72
2017-05-01T03:57:58.175Z,80
2017-05-01T03:59:07.906Z,92
2017-05-01T04:00:17.719Z,100
2017-05-01T04:01:27.772Z,112
2017-05-01T04:02:38.129Z,124
2017-05-01T04:03:47.219Z,136
2017-05-01T04:04:56.948Z,144
2017-05-01T04:06:06.995Z,156
2017-05-01T04:07:17.046Z,172
2017-05-01T04:08:27.084Z,180
2017-05-01T04:09:36.805Z,192
2017-05-01T04:10:46.534Z,204
2017-05-01T04:11:56.562Z,212
2017-05-01T04:13:06.602Z,228
2017-05-01T04:14:16.958Z,236
2017-05-01T04:15:27.006Z,252
2017-05-01T04:16:36.727Z,264
2017-05-01T04:17:46.448Z,276
2017-05-01T04:18:55.549Z,292
2017-05-01T04:20:05.282Z,308
2017-05-01T04:21:15.632Z,328
2017-05-01T04:22:25.040Z,344
2017-05-01T04:23:35.072Z,376
2017-05-01T04:24:44.785Z,408
2017-05-01T04:25:54.540Z,444
2017-05-01T04:27:04.580Z,484
2017-05-01T04:28:14.629Z,528
2017-05-01T04:29:24.057Z,564
2017-05-01T04:30:34.410Z,596
2017-05-01T04:31:44.136Z,628
2017-05-01T04:32:54.186Z,660
2017-05-01T04:34:03.937Z,692
2017-05-01T04:35:13.973Z,724
2017-05-01T04:36:23.697Z,748
2017-05-01T04:37:33.733Z,776
2017-05-01T04:38:43.764Z,808
2017-05-01T04:39:53.803Z,852
2017-05-01T04:41:03.206Z,888
2017-05-01T04:42:13.243Z,920
2017-05-01T04:43:22.965Z,956
2017-05-01T04:44:33.009Z,1012
2017-05-01T04:45:42.731Z,1084
2017-05-01T04:46:52.771Z,1156
2017-05-01T04:48:02.495Z,1220
2017-05-01T04:49:12.544Z,1248
2017-05-01T04:50:22.593Z,1252
2017-05-01T04:51:32.312Z,1248
2017-05-01T04:52:42.036Z,1260
2017-05-01T04:53:51.761Z,1280
2017-05-01T04:55:01.797Z,1292
2017-05-01T04:56:11.524Z,1288
2017-05-01T04:57:21.246Z,1276
2017-05-01T04:58:31.291Z,1276
2017-05-01T04:59:41.010Z,1288
2017-05-01T05:00:50.736Z,1304
2017-05-01T05:02:00.466Z,1336
2017-05-01T05:03:10.196Z,1368
2017-05-01T05:04:20.231Z,1400
2017-05-01T05:05:29.974Z,1432
2017-05-01T05:06:40.006Z,1476
2017-05-01T05:07:49.414Z,1524
2017-05-01T05:08:58.832Z,1568
2017-05-01T05:10:08.553Z,1608
2017-05-01T05:11:17.951Z,1644
2017-05-01T05:12:28.311Z,1668
2017-05-01T05:13:37.412Z,1696
2017-05-01T05:14:46.817Z,1716
2017-05-01T05:15:57.215Z,1740
2017-05-01T05:17:06.631Z,1756
2017-05-01T05:18:16.995Z,1764
2017-05-01T05:19:27.042Z,1764
2017-05-01T05:20:36.778Z,1764
2017-05-01T05:21:46.508Z,1772
2017-05-01T05:22:56.876Z,1796
2017-05-01T05:24:06.610Z,1836
2017-05-01T05:25:16.011Z,1880
2017-05-01T05:26:25.741Z,1944
2017-05-01T05:27:35.468Z,2028
2017-05-01T05:28:45.198Z,2116
2017-05-01T05:29:55.235Z,2212
2017-05-01T05:31:05.581Z,2316
2017-05-01T05:32:15.290Z,2436
2017-05-01T05:33:25.650Z,2548
2017-05-01T05:34:36.010Z,2672
2017-05-01T05:35:45.730Z,2792
2017-05-01T05:36:55.461Z,2916
2017-05-01T05:38:05.495Z,3044
2017-05-01T05:39:14.899Z,3164
2017-05-01T05:40:24.972Z,3276
2017-05-01T05:41:34.696Z,3376
2017-05-01T05:42:44.114Z,3456
2017-05-01T05:43:54.210Z,3528
2017-05-01T05:45:04.577Z,3600
2017-05-01T05:46:13.664Z,3656
2017-05-01T05:47:23.076Z,3708
2017-05-01T05:48:33.160Z,3784
2017-05-01T05:49:42.893Z,3864
2017-05-01T05:50:51.977Z,3968
2017-05-01T05:52:01.378Z,4100
2017-05-01T05:53:10.796Z,4260
2017-05-01T05:54:20.197Z,4452
2017-05-01T05:55:29.602Z,4656
2017-05-01T05:56:39.020Z,4856
2017-05-01T05:57:49.064Z,5056
2017-05-01T05:58:59.108Z,5252
2017-05-01T06:00:08.525Z,5432
2017-05-01T06:01:18.577Z,5596
2017-05-01T06:02:27.987Z,5724
2017-05-01T06:03:38.039Z,5784
2017-05-01T06:04:48.079Z,5812
2017-05-01T06:05:57.823Z,5984
2017-05-01T06:07:07.539Z,6276
2017-05-01T06:08:17.264Z,6484
2017-05-01T06:09:26.987Z,6448
2017-05-01T06:10:36.938Z,6248
2017-05-01T06:11:46.661Z,6232
2017-05-01T06:12:57.026Z,6236
2017-05-01T06:14:06.748Z,6140
2017-05-01T06:15:16.473Z,6136
2017-05-01T06:16:26.507Z,6108
2017-05-01T06:17:36.552Z,6020
2017-05-01T06:18:46.316Z,5848
2017-05-01T06:19:56.410Z,5948
2017-05-01T06:21:06.130Z,6812
2017-05-01T06:22:16.169Z,7484
2017-05-01T06:23:25.936Z,7920
2017-05-01T06:24:35.354Z,8192
2017-05-01T06:25:44.764Z,8332
2017-05-01T06:26:54.489Z,8192
2017-05-01T06:28:04.846Z,8096
2017-05-01T06:29:14.253Z,8224
2017-05-01T06:30:24.297Z,8520
2017-05-01T06:31:33.709Z,8952
2017-05-01T06:32:43.438Z,9348
2017-05-01T06:33:53.175Z,9460
2017-05-01T06:35:02.591Z,9452
2017-05-01T06:36:12.942Z,9456
2017-05-01T06:37:22.669Z,9372
2017-05-01T06:38:32.401Z,9304
2017-05-01T06:39:42.130Z,9088
2017-05-01T06:40:52.171Z,8612
2017-05-01T06:42:01.897Z,8168
2017-05-01T06:43:11.634Z,7888
2017-05-01T06:44:21.688Z,7792
2017-05-01T06:45:32.049Z,7812
2017-05-01T06:46:42.403Z,7892
2017-05-01T06:47:51.183Z,8056
2017-05-01T06:49:01.260Z,8140
2017-05-01T06:50:11.298Z,8176
2017-05-01T06:51:21.340Z,8160
2017-05-01T06:52:30.764Z,8112
2017-05-01T06:53:40.495Z,8104
2017-05-01T06:54:49.907Z,8168
2017-05-01T06:55:59.003Z,8176
2017-05-01T06:57:09.039Z,8024
2017-05-01T06:58:18.127Z,7728
2017-05-01T06:59:27.863Z,7360
2017-05-01T07:00:38.211Z,7152
2017-05-01T07:01:48.246Z,7284
2017-05-01T07:02:58.606Z,7624
2017-05-01T07:04:08.645Z,7744
2017-05-01T07:05:18.391Z,7644
2017-05-01T07:06:28.339Z,7440
2017-05-01T07:07:38.433Z,7252
2017-05-01T07:08:47.526Z,7244
2017-05-01T07:09:57.882Z,7344
2017-05-01T07:11:07.290Z,7444
2017-05-01T07:12:17.006Z,7356
2017-05-01T07:13:27.056Z,7112
2017-05-01T07:14:37.093Z,6756
2017-05-01T07:15:46.510Z,6424
2017-05-01T07:16:56.225Z,6136
2017-05-01T07:18:05.940Z,5956
2017-05-01T07:19:15.354Z,6012
2017-05-01T07:20:25.077Z,6312
2017-05-01T07:21:34.815Z,6408
2017-05-01T07:22:45.176Z,6480
2017-05-01T07:23:54.904Z,6620
2017-05-01T07:25:04.303Z,6640
2017-05-01T07:26:14.340Z,6692
2017-05-01T07:27:23.747Z,7028
2017-05-01T07:28:34.124Z,7432
2017-05-01T07:29:43.552Z,7728
2017-05-01T07:30:53.596Z,7760
2017-05-01T07:32:03.638Z,7620
2017-05-01T07:33:12.738Z,7464
2017-05-01T07:34:23.085Z,7284
2017-05-01T07:35:32.498Z,7116
2017-05-01T07:36:42.544Z,7116
2017-05-01T07:37:52.888Z,7488
2017-05-01T07:39:02.615Z,7844
2017-05-01T07:40:12.021Z,8072
2017-05-01T07:41:21.740Z,8368
2017-05-01T07:42:32.083Z,8544
2017-05-01T07:43:42.445Z,8288
2017-05-01T07:44:52.792Z,7716
2017-05-01T07:46:02.511Z,7164
2017-05-01T07:47:12.233Z,6812
2017-05-01T07:48:22.266Z,6736
2017-05-01T07:49:31.985Z,6772
2017-05-01T07:50:42.033Z,6820
2017-05-01T07:51:51.442Z,6844
2017-05-01T07:53:01.174Z,6820
2017-05-01T07:54:10.903Z,6984
2017-05-01T07:55:20.624Z,7464
2017-05-01T07:56:30.668Z,8032
2017-05-01T07:57:40.396Z,8344
2017-05-01T07:58:50.439Z,8484
2017-05-01T08:00:00.498Z,8636
2017-05-01T08:01:10.219Z,8948
2017-05-01T08:02:19.623Z,9316
2017-05-01T08:03:29.655Z,9496
2017-05-01T08:04:39.714Z,9632
2017-05-01T08:05:48.811Z,9784
2017-05-01T08:06:58.854Z,9884
2017-05-01T08:08:08.576Z,9712
2017-05-01T08:09:18.306Z,9328
2017-05-01T08:10:28.338Z,9240
2017-05-01T08:11:38.056Z,9340
2017-05-01T08:12:46.836Z,9536
2017-05-01T08:13:57.187Z,10000
2017-05-01T08:15:07.528Z,10292
2017-05-01T08:16:17.247Z,10224
2017-05-01T08:17:26.661Z,9756
2017-05-01T08:18:37.016Z,8808
2017-05-01T08:19:47.046Z,7688
2017-05-01T08:20:57.087Z,7148
2017-05-01T08:22:06.510Z,7388
2017-05-01T08:23:16.232Z,7980
2017-05-01T08:24:25.948Z,8544
2017-05-01T08:25:35.989Z,8964
2017-05-01T08:26:45.714Z,9228
2017-05-01T08:27:55.425Z,9380
2017-05-01T08:29:05.152Z,9528
2017-05-01T08:30:14.881Z,9748
2017-05-01T08:31:24.612Z,9940
2017-05-01T08:32:34.646Z,9928
2017-05-01T08:33:44.387Z,9852
2017-05-01T08:34:54.439Z,9872
2017-05-01T08:36:04.487Z,10048
2017-05-01T08:37:13.907Z,10316
2017-05-01T08:38:23.952Z,10432
2017-05-01T08:39:33.990Z,10412
2017-05-01T08:40:44.342Z,10408
2017-05-01T08:41:54.070Z,10608
2017-05-01T08:43:04.416Z,10960
2017-05-01T08:44:13.838Z,11384
2017-05-01T08:45:23.241Z,11768
2017-05-01T08:46:32.661Z,12024
2017-05-01T08:47:42.701Z,12384
2017-05-01T08:48:52.124Z,12860
2017-05-01T08:50:02.182Z,13364
2017-05-01T08:51:11.908Z,13740
2017-05-01T08:52:21.626Z,13904
2017-05-01T08:53:31.042Z,13740
2017-05-01T08:54:40.763Z,13260
2017-05-01T08:55:51.122Z,12628
2017-05-01T08:57:00.859Z,12172
2017-05-01T08:58:10.598Z,11984
2017-05-01T08:59:20.320Z,11984
2017-05-01T09:00:30.357Z,12160
2017-05-01T09:01:40.758Z,12396
2017-05-01T09:02:51.140Z,12668
2017-05-01T09:03:59.920Z,12904
2017-05-01T09:05:10.276Z,13048
2017-05-01T09:06:19.689Z,13040
2017-05-01T09:07:29.102Z,13052
2017-05-01T09:08:39.148Z,13120
2017-05-01T09:09:48.875Z,13204
2017-05-01T09:10:58.910Z,13292
2017-05-01T09:12:08.003Z,13308
2017-05-01T09:13:17.411Z,13212
2017-05-01T09:14:27.772Z,12948
2017-05-01T09:15:38.129Z,13144
2017-05-01T09:16:47.856Z,13896
2017-05-01T09:17:57.905Z,14232
2017-05-01T09:19:07.624Z,14200
2017-05-01T09:20:16.717Z,14192
2017-05-01T09:21:26.444Z,14208
2017-05-01T09:22:36.221Z,14368
2017-05-01T09:23:46.584Z,14468
2017-05-01T09:24:56.625Z,14440
2017-05-01T09:26:06.342Z,14292
2017-05-01T09:27:15.757Z,14028
2017-05-01T09:28:25.175Z,13700
2017-05-01T09:29:34.588Z,13356
2017-05-01T09:30:44.310Z,13060
2017-05-01T09:31:53.401Z,12776
2017-05-01T09:33:03.447Z,12772
2017-05-01T09:34:13.805Z,13148
2017-05-01T09:35:24.169Z,13772
2017-05-01T09:36:34.219Z,14492
2017-05-01T09:37:43.948Z,15192
2017-05-01T09:38:53.364Z,15640
2017-05-01T09:40:02.460Z,15928
2017-05-01T09:41:12.514Z,15952
2017-05-01T09:42:22.230Z,15740
2017-05-01T09:43:31.957Z,15640
2017-05-01T09:44:41.681Z,16328
2017-05-01T09:45:51.417Z,17016
2017-05-01T09:47:01.148Z,17696
2017-05-01T09:48:10.562Z,18144
2017-05-01T09:49:20.618Z,18304
2017-05-01T09:50:30.670Z,18048
2017-05-01T09:51:40.084Z,17536
2017-05-01T09:52:49.187Z,16784
2017-05-01T09:53:58.917Z,16108
2017-05-01T09:55:08.961Z,15912
2017-05-01T09:56:18.999Z,16376
2017-05-01T09:57:29.035Z,17664
2017-05-01T09:58:37.815Z,18944
2017-05-01T09:59:47.540Z,19904
2017-05-01T10:00:57.888Z,20480
2017-05-01T10:02:07.921Z,20832
2017-05-01T10:03:17.328Z,21024
2017-05-01T10:04:27.371Z,21056
2017-05-01T10:05:36.788Z,21056
2017-05-01T10:06:46.509Z,21184
2017-05-01T10:07:55.923Z,21376
2017-05-01T10:09:05.963Z,21664
2017-05-01T10:10:15.690Z,21920
2017-05-01T10:11:25.735Z,22016
2017-05-01T10:12:35.776Z,21888
2017-05-01T10:13:45.513Z,21344
2017-05-01T10:14:55.243Z,20480
2017-05-01T10:16:04.972Z,19552
2017-05-01T10:17:14.376Z,18752
2017-05-01T10:18:24.464Z,18304
2017-05-01T10:19:34.193Z,18080
2017-05-01T10:20:43.924Z,17952
2017-05-01T10:21:53.344Z,17760
2017-05-01T10:23:03.412Z,17440
2017-05-01T10:24:13.133Z,16964
2017-05-01T10:25:22.862Z,16740
2017-05-01T10:26:32.902Z,16684
2017-05-01T10:27:42.315Z,16720
2017-05-01T10:28:51.725Z,16788
2017-05-01T10:30:01.464Z,16860
2017-05-01T10:31:11.189Z,17012
2017-05-01T10:32:21.232Z,17216
2017-05-01T10:33:30.966Z,17312
2017-05-01T10:34:40.717Z,17344
2017-05-01T10:35:50.444Z,17440
2017-05-01T10:37:00.167Z,17696
2017-05-01T10:38:10.215Z,18016
2017-05-01T10:39:19.955Z,18368
2017-05-01T10:40:29.717Z,18688
2017-05-01T10:41:39.127Z,18944
2017-05-01T10:42:48.856Z,19072
2017-05-01T10:43:59.209Z,19200
2017-05-01T10:45:09.255Z,19296
2017-05-01T10:46:18.649Z,19264
2017-05-01T10:47:28.383Z,19136
2017-05-01T10:48:38.105Z,18976
2017-05-01T10:49:48.449Z,18912
2017-05-01T10:50:57.855Z,19168
2017-05-01T10:52:07.890Z,19712
2017-05-01T10:53:17.935Z,20320
2017-05-01T10:54:28.027Z,20800
2017-05-01T10:55:37.755Z,21152
2017-05-01T10:56:47.485Z,21376
2017-05-01T10:57:57.539Z,21600
2017-05-01T10:59:07.275Z,21792
2017-05-01T11:00:17.010Z,21984
2017-05-01T11:01:26.421Z,21824
2017-05-01T11:02:36.153Z,21376
2017-05-01T11:03:46.518Z,20800
2017-05-01T11:04:55.681Z,20384
2017-05-01T11:06:05.412Z,20032
2017-05-01T11:07:15.153Z,19648
2017-05-01T11:08:25.200Z,19136
2017-05-01T11:09:35.260Z,18528
2017-05-01T11:10:45.300Z,17824
2017-05-01T11:11:55.039Z,17664
2017-05-01T11:13:05.084Z,18144
2017-05-01T11:14:15.140Z,18400
2017-05-01T11:15:25.186Z,18400
2017-05-01T11:16:34.936Z,19040
2017-05-01T11:17:44.979Z,18784
2017-05-01T11:18:54.403Z,19360
2017-05-01T11:20:03.813Z,20288
2017-05-01T11:21:13.565Z,20320
2017-05-01T11:22:23.927Z,19328
2017-05-01T11:23:33.656Z,19424
2017-05-01T11:24:43.075Z,20512
2017-05-01T11:25:53.436Z,21312
2017-05-01T11:27:03.485Z,22016
2017-05-01T11:28:13.213Z,21984
2017-05-01T11:29:22.631Z,22240
2017-05-01T11:30:32.672Z,21728
2017-05-01T11:31:42.397Z,21184
2017-05-01T11:32:52.450Z,21984
2017-05-01T11:34:02.192Z,21888
2017-05-01T11:35:12.237Z,21216
2017-05-01T11:36:21.326Z,22368
2017-05-01T11:37:31.399Z,22336
2017-05-01T11:38:41.765Z,21696
2017-05-01T11:39:51.171Z,24192
2017-05-01T11:41:01.214Z,24416
2017-05-01T11:42:10.627Z,24832
2017-05-01T11:43:20.364Z,24416
2017-05-01T11:44:29.779Z,23808
2017-05-01T11:45:40.137Z,23456
2017-05-01T11:46:50.175Z,22560
2017-05-01T11:48:00.219Z,22432
2017-05-01T11:49:09.636Z,22080
2017-05-01T11:50:19.371Z,22496
2017-05-01T11:51:28.794Z,22912
2017-05-01T11:52:38.542Z,22528
2017-05-01T11:53:47.965Z,21792
2017-05-01T11:54:58.033Z,19776
2017-05-01T11:56:08.082Z,17000
2017-05-01T11:57:17.173Z,15328
2017-05-01T11:58:26.575Z,16852
2017-05-01T11:59:36.296Z,18144
2017-05-01T12:00:45.715Z,18432
2017-05-01T12:01:55.130Z,18528
2017-05-01T12:03:04.850Z,18688
2017-05-01T12:04:14.929Z,19168
2017-05-01T12:05:24.349Z,19744
2017-05-01T12:06:33.772Z,20000
2017-05-01T12:07:43.496Z,20128
2017-05-01T12:08:53.232Z,20224
2017-05-01T12:10:02.648Z,19616
2017-05-01T12:11:12.379Z,19072
2017-05-01T12:12:22.431Z,20576
2017-05-01T12:13:32.794Z,21952
2017-05-01T12:14:42.208Z,22720
2017-05-01T12:15:52.558Z,23360
2017-05-01T12:17:02.284Z,23840
2017-05-01T12:18:12.019Z,24192
2017-05-01T12:19:22.073Z,24544
2017-05-01T12:20:31.814Z,25024
2017-05-01T12:21:41.237Z,25408
2017-05-01T12:22:51.591Z,25440
2017-05-01T12:24:01.637Z,25024
2017-05-01T12:25:11.368Z,24448
2017-05-01T12:26:21.402Z,23904
2017-05-01T12:28:02.887Z,23360
2017-05-01T12:29:12.614Z,23424
2017-05-01T12:30:22.344Z,23712
2017-05-01T12:31:31.750Z,24192
2017-05-01T12:32:42.107Z,24480
2017-05-01T12:33:51.530Z,24608
2017-05-01T12:35:00.946Z,24480
2017-05-01T12:36:10.043Z,24192
2017-05-01T12:37:19.784Z,23680
2017-05-01T12:38:29.518Z,23008
2017-05-01T12:39:39.562Z,22272
2017-05-01T12:40:49.293Z,21568
2017-05-01T12:41:59.017Z,20864
2017-05-01T12:43:09.056Z,20352
2017-05-01T12:44:19.421Z,19968
2017-05-01T12:45:29.467Z,19776
2017-05-01T12:46:39.518Z,19744
2017-05-01T12:47:49.872Z,19904
2017-05-01T12:48:59.285Z,20160
2017-05-01T12:50:09.319Z,20576
2017-05-01T12:51:19.365Z,21056
2017-05-01T12:52:28.516Z,21568
2017-05-01T12:53:38.568Z,22048
2017-05-01T12:54:48.325Z,22496
2017-05-01T12:55:58.358Z,22752
2017-05-01T12:57:08.078Z,22560
2017-05-01T12:58:17.808Z,22080
2017-05-01T12:59:27.225Z,21344
2017-05-01T13:00:36.641Z,20480
2017-05-01T13:01:46.408Z,19808
2017-05-01T13:02:55.825Z,19264
2017-05-01T13:04:04.923Z,18784
2017-05-01T13:05:14.641Z,18336
2017-05-01T13:06:24.359Z,18016
2017-05-01T13:07:33.767Z,17696
2017-05-01T13:08:43.806Z,17504
2017-05-01T13:09:53.853Z,17344
2017-05-01T13:11:03.575Z,17344
2017-05-01T13:12:13.611Z,17440
2017-05-01T13:13:23.339Z,17632
2017-05-01T13:14:33.063Z,17760
2017-05-01T13:15:43.114Z,17792
2017-05-01T13:16:53.479Z,17824
2017-05-01T13:18:03.521Z,17952
2017-05-01T13:19:13.570Z,18112
2017-05-01T13:20:23.296Z,18272
2017-05-01T13:21:32.710Z,18400
2017-05-01T13:22:42.442Z,18464
2017-05-01T13:23:52.183Z,18464
2017-05-01T13:25:02.222Z,18400
2017-05-01T13:26:11.945Z,18112
2017-05-01T13:27:21.985Z,17760
2017-05-01T13:28:31.394Z,17160
2017-05-01T13:29:41.434Z,16700
2017-05-01T13:30:51.473Z,16320
2017-05-01T13:32:01.193Z,16072
2017-05-01T13:33:11.241Z,15900
2017-05-01T13:34:21.601Z,15804
2017-05-01T13:35:31.647Z,15824
2017-05-01T13:36:41.376Z,16036
2017-05-01T13:37:50.789Z,16444
2017-05-01T13:39:00.842Z,17008
2017-05-01T13:40:10.571Z,17760
2017-05-01T13:41:20.619Z,18304
2017-05-01T13:42:30.349Z,18592
2017-05-01T13:43:40.398Z,18656
2017-05-01T13:44:50.439Z,18496
2017-05-01T13:46:00.166Z,18336
2017-05-01T13:47:10.225Z,18240
2017-05-01T13:48:20.594Z,18304
2017-05-01T13:49:30.008Z,18528
2017-05-01T13:50:40.054Z,18816
2017-05-01T13:51:49.778Z,18944
2017-05-01T13:52:59.828Z,19008
2017-05-01T13:54:09.240Z,19008
2017-05-01T13:55:18.957Z,18976
2017-05-01T13:56:28.371Z,18976
2017-05-01T13:57:38.109Z,18816
2017-05-01T13:58:48.158Z,18592
2017-05-01T13:59:57.886Z,18304
2017-05-01T14:01:08.237Z,18080
2017-05-01T14:02:17.964Z,17952
2017-05-01T14:03:28.016Z,17888
2017-05-01T14:04:38.096Z,17920
2017-05-01T14:05:48.137Z,17920
2017-05-01T14:06:58.178Z,17920
2017-05-01T14:08:07.910Z,18048
2017-05-01T14:09:17.010Z,18432
2017-05-01T14:10:27.044Z,19040
2017-05-01T14:11:37.396Z,19872
2017-05-01T14:12:47.744Z,20608
2017-05-01T14:13:57.152Z,20992
2017-05-01T14:15:07.193Z,20544
2017-05-01T14:16:16.921Z,19776
2017-05-01T14:17:27.282Z,19136
2017-05-01T14:18:37.641Z,18720
2017-05-01T14:19:48.011Z,18208
2017-05-01T14:20:58.059Z,17568
2017-05-01T14:22:08.430Z,16712
2017-05-01T14:23:18.163Z,16028
2017-05-01T14:24:27.590Z,15404
2017-05-01T14:25:36.687Z,14888
2017-05-01T14:26:46.417Z,14472
2017-05-01T14:27:56.468Z,14148
2017-05-01T14:29:06.835Z,13912
2017-05-01T14:30:17.190Z,13736
2017-05-01T14:31:26.942Z,13688
2017-05-01T14:32:36.989Z,13848
2017-05-01T14:33:46.714Z,14308
2017-05-01T14:34:56.461Z,15020
2017-05-01T14:36:06.193Z,15940
2017-05-01T14:37:15.928Z,16944
2017-05-01T14:38:25.971Z,18112
2017-05-01T14:39:35.712Z,19072
2017-05-01T14:40:45.758Z,19840
2017-05-01T14:41:55.168Z,20480
2017-05-01T14:43:04.584Z,20992
2017-05-01T14:44:13.685Z,21312
2017-05-01T14:45:24.043Z,21504
2017-05-01T14:46:33.455Z,21504
2017-05-01T14:47:43.504Z,21216
2017-05-01T14:48:53.550Z,20896
2017-05-01T14:50:02.964Z,20640
2017-05-01T14:51:13.010Z,20416
2017-05-01T14:52:22.736Z,20224
2017-05-01T14:53:32.146Z,19968
2017-05-01T14:54:41.873Z,19808
2017-05-01T14:55:51.915Z,19520
2017-05-01T14:57:01.013Z,18912
2017-05-01T14:58:10.756Z,18048
2017-05-01T14:59:21.169Z,16840
2017-05-01T15:00:30.581Z,15648
2017-05-01T15:01:40.310Z,14652
2017-05-01T15:02:50.681Z,14396
2017-05-01T15:04:01.048Z,14492
2017-05-01T15:05:11.089Z,15160
2017-05-01T15:06:20.821Z,15732
2017-05-01T15:07:29.925Z,16424
2017-05-01T15:08:39.353Z,17036
2017-05-01T15:09:49.721Z,17568
2017-05-01T15:10:58.825Z,17536
2017-05-01T15:12:08.857Z,17236
2017-05-01T15:13:17.946Z,17212
2017-05-01T15:14:27.710Z,17068
2017-05-01T15:15:38.073Z,16808
2017-05-01T15:16:47.793Z,16572
2017-05-01T15:17:57.209Z,16176
2017-05-01T15:19:06.622Z,15752
2017-05-01T15:20:16.677Z,15584
2017-05-01T15:21:26.403Z,15636
2017-05-01T15:22:36.761Z,15936
2017-05-01T15:23:46.817Z,16260
2017-05-01T15:24:56.552Z,16484
2017-05-01T15:26:06.286Z,16496
2017-05-01T15:27:16.652Z,16448
2017-05-01T15:28:26.694Z,16436
2017-05-01T15:29:36.745Z,16352
2017-05-01T15:30:46.169Z,16108
2017-05-01T15:31:55.573Z,15712
2017-05-01T15:33:04.983Z,15260
2017-05-01T15:34:14.709Z,14820
2017-05-01T15:35:24.761Z,14456
2017-05-01T15:36:33.863Z,14156
2017-05-01T15:37:43.911Z,13852
2017-05-01T15:38:53.959Z,13496
2017-05-01T15:40:03.371Z,13040